Lanyon, Iowa
Current Conditions -  °F | °C
As of 5:55 AM on Thursday 23 Oct 2014 (Local Time) from KFOD Reporting Station
Overcast Overcast  
Wind Chill: 54°   Ceiling: 600
Heat Index: 54°   Visibility: 8mi
Dew Point: 50°   Wind: 7mph
Humidity: 88%   Direction: 210°SSW
Pressure: 30.02"   Gusts: NA
Location:  42.251°N, 94.2206°W
Report Text: KFOD 231055Z AUTO 21006KT 8SM OVC006 12/10 A3002 RMK AO1 P0002
Loading
Personal Weather Stations






























Interactive Weather Map
Tropical Storm Tracking
New forecast layout! Learn more

10-Day Weather Forecast

Advertisements
Track Severe Weather on mobile